sensor_id;sensor_type;location;lat;lon;timestamp;temperature;humidity
13405;DHT22;6773;51.192;7.024;2022-07-29T00:04:19;22.80;76.80
13405;DHT22;6773;51.192;7.024;2022-07-29T00:06:45;22.90;75.10
13405;DHT22;6773;51.192;7.024;2022-07-29T00:11:36;23.20;76.10
13405;DHT22;6773;51.192;7.024;2022-07-29T00:14:02;23.40;74.90
13405;DHT22;6773;51.192;7.024;2022-07-29T00:16:28;23.50;73.20
13405;DHT22;6773;51.192;7.024;2022-07-29T00:18:54;23.40;74.40
13405;DHT22;6773;51.192;7.024;2022-07-29T00:26:11;23.30;74.60
13405;DHT22;6773;51.192;7.024;2022-07-29T00:31:03;23.30;73.50
13405;DHT22;6773;51.192;7.024;2022-07-29T00:33:29;23.30;74.20
13405;DHT22;6773;51.192;7.024;2022-07-29T00:35:54;23.40;74.30
13405;DHT22;6773;51.192;7.024;2022-07-29T00:40:46;23.00;71.90
13405;DHT22;6773;51.192;7.024;2022-07-29T00:43:13;22.70;75.20
13405;DHT22;6773;51.192;7.024;2022-07-29T00:45:40;22.60;74.40
13405;DHT22;6773;51.192;7.024;2022-07-29T00:48:06;22.60;75.40
13405;DHT22;6773;51.192;7.024;2022-07-29T00:50:32;22.50;74.70
13405;DHT22;6773;51.192;7.024;2022-07-29T00:52:58;22.20;73.90
13405;DHT22;6773;51.192;7.024;2022-07-29T00:55:24;22.20;75.30
13405;DHT22;6773;51.192;7.024;2022-07-29T00:57:50;22.20;74.80
13405;DHT22;6773;51.192;7.024;2022-07-29T01:00:20;22.30;74.50
13405;DHT22;6773;51.192;7.024;2022-07-29T01:02:47;22.30;75.90
13405;DHT22;6773;51.192;7.024;2022-07-29T01:05:21;22.50;76.20
13405;DHT22;6773;51.192;7.024;2022-07-29T01:07:49;22.50;73.00
13405;DHT22;6773;51.192;7.024;2022-07-29T01:10:16;22.20;75.50
13405;DHT22;6773;51.192;7.024;2022-07-29T01:12:45;22.20;75.20
13405;DHT22;6773;51.192;7.024;2022-07-29T01:15:11;22.40;75.30
13405;DHT22;6773;51.192;7.024;2022-07-29T01:23:06;23.10;74.50
13405;DHT22;6773;51.192;7.024;2022-07-29T01:25:48;22.90;72.60
13405;DHT22;6773;51.192;7.024;2022-07-29T01:28:49;22.80;74.00
13405;DHT22;6773;51.192;7.024;2022-07-29T01:31:22;22.80;73.20
13405;DHT22;6773;51.192;7.024;2022-07-29T01:33:57;22.70;74.90
13405;DHT22;6773;51.192;7.024;2022-07-29T01:36:35;22.50;71.40
13405;DHT22;6773;51.192;7.024;2022-07-29T01:39:11;22.30;73.60
13405;DHT22;6773;51.192;7.024;2022-07-29T01:41:42;22.30;74.00
13405;DHT22;6773;51.192;7.024;2022-07-29T01:44:17;22.30;75.40
13405;DHT22;6773;51.192;7.024;2022-07-29T01:46:50;22.50;74.60
13405;DHT22;6773;51.192;7.024;2022-07-29T01:49:21;22.50;73.80
13405;DHT22;6773;51.192;7.024;2022-07-29T01:52:03;22.50;74.10
13405;DHT22;6773;51.192;7.024;2022-07-29T01:57:00;22.60;74.10
13405;DHT22;6773;51.192;7.024;2022-07-29T01:59:27;22.70;72.70
13405;DHT22;6773;51.192;7.024;2022-07-29T02:01:55;22.70;72.80
13405;DHT22;6773;51.192;7.024;2022-07-29T02:04:22;22.60;72.30
13405;DHT22;6773;51.192;7.024;2022-07-29T02:06:51;22.40;71.40
13405;DHT22;6773;51.192;7.024;2022-07-29T02:09:19;22.20;72.40
13405;DHT22;6773;51.192;7.024;2022-07-29T02:11:51;22.30;73.30
13405;DHT22;6773;51.192;7.024;2022-07-29T02:14:19;22.30;72.60
13405;DHT22;6773;51.192;7.024;2022-07-29T02:16:46;22.40;74.30
13405;DHT22;6773;51.192;7.024;2022-07-29T02:19:14;22.60;74.70
13405;DHT22;6773;51.192;7.024;2022-07-29T02:21:40;22.90;73.20
13405;DHT22;6773;51.192;7.024;2022-07-29T02:24:08;22.80;73.40
13405;DHT22;6773;51.192;7.024;2022-07-29T02:26:37;23.10;73.30
13405;DHT22;6773;51.192;7.024;2022-07-29T02:29:05;23.10;72.80
13405;DHT22;6773;51.192;7.024;2022-07-29T02:31:34;23.10;71.90
13405;DHT22;6773;51.192;7.024;2022-07-29T02:34:03;23.10;72.20
13405;DHT22;6773;51.192;7.024;2022-07-29T02:36:31;23.10;71.40
13405;DHT22;6773;51.192;7.024;2022-07-29T02:38:58;23.20;72.50
13405;DHT22;6773;51.192;7.024;2022-07-29T02:41:35;23.10;71.80
13405;DHT22;6773;51.192;7.024;2022-07-29T02:44:06;23.00;71.90
13405;DHT22;6773;51.192;7.024;2022-07-29T02:46:35;23.10;71.50
13405;DHT22;6773;51.192;7.024;2022-07-29T02:49:09;23.10;72.60
13405;DHT22;6773;51.192;7.024;2022-07-29T02:51:57;23.30;72.20
13405;DHT22;6773;51.192;7.024;2022-07-29T02:57:00;23.50;71.50
13405;DHT22;6773;51.192;7.024;2022-07-29T02:59:30;23.60;71.40
13405;DHT22;6773;51.192;7.024;2022-07-29T03:01:59;23.60;70.70
13405;DHT22;6773;51.192;7.024;2022-07-29T03:04:26;23.40;70.40
13405;DHT22;6773;51.192;7.024;2022-07-29T03:06:53;23.30;71.40
13405;DHT22;6773;51.192;7.024;2022-07-29T03:09:21;23.20;71.80
13405;DHT22;6773;51.192;7.024;2022-07-29T03:14:16;23.00;71.70
13405;DHT22;6773;51.192;7.024;2022-07-29T03:16:42;23.00;72.20
13405;DHT22;6773;51.192;7.024;2022-07-29T03:19:08;22.90;72.60
13405;DHT22;6773;51.192;7.024;2022-07-29T03:21:33;23.00;72.30
13405;DHT22;6773;51.192;7.024;2022-07-29T03:23:59;23.10;72.20
13405;DHT22;6773;51.192;7.024;2022-07-29T03:26:25;23.10;72.10
13405;DHT22;6773;51.192;7.024;2022-07-29T03:31:16;23.10;72.10
13405;DHT22;6773;51.192;7.024;2022-07-29T03:33:42;23.00;72.10
13405;DHT22;6773;51.192;7.024;2022-07-29T03:36:08;22.90;72.20
13405;DHT22;6773;51.192;7.024;2022-07-29T03:38:35;22.80;72.40
13405;DHT22;6773;51.192;7.024;2022-07-29T03:41:05;22.60;71.90
13405;DHT22;6773;51.192;7.024;2022-07-29T03:43:36;22.40;72.90
13405;DHT22;6773;51.192;7.024;2022-07-29T03:46:04;22.40;73.40
13405;DHT22;6773;51.192;7.024;2022-07-29T03:48:33;22.40;73.50
13405;DHT22;6773;51.192;7.024;2022-07-29T03:50:59;22.10;70.50
13405;DHT22;6773;51.192;7.024;2022-07-29T03:55:54;21.70;73.50
13405;DHT22;6773;51.192;7.024;2022-07-29T03:58:26;22.20;74.60
13405;DHT22;6773;51.192;7.024;2022-07-29T04:00:54;22.30;73.80
13405;DHT22;6773;51.192;7.024;2022-07-29T04:03:20;22.10;71.80
13405;DHT22;6773;51.192;7.024;2022-07-29T04:06:04;22.00;73.90
13405;DHT22;6773;51.192;7.024;2022-07-29T04:08:34;22.00;73.10
13405;DHT22;6773;51.192;7.024;2022-07-29T04:11:01;22.00;73.50
13405;DHT22;6773;51.192;7.024;2022-07-29T04:13:27;22.00;74.40
13405;DHT22;6773;51.192;7.024;2022-07-29T04:23:10;21.90;74.50
13405;DHT22;6773;51.192;7.024;2022-07-29T04:25:40;21.70;75.10
13405;DHT22;6773;51.192;7.024;2022-07-29T04:28:06;21.70;75.00
13405;DHT22;6773;51.192;7.024;2022-07-29T04:30:33;21.70;75.80
13405;DHT22;6773;51.192;7.024;2022-07-29T04:33:00;21.80;72.60
13405;DHT22;6773;51.192;7.024;2022-07-29T04:35:26;21.90;75.30
13405;DHT22;6773;51.192;7.024;2022-07-29T04:40:18;21.80;74.50
13405;DHT22;6773;51.192;7.024;2022-07-29T04:45:10;21.80;76.20
13405;DHT22;6773;51.192;7.024;2022-07-29T04:47:35;21.90;75.50
13405;DHT22;6773;51.192;7.024;2022-07-29T04:52:27;21.90;74.30
13405;DHT22;6773;51.192;7.024;2022-07-29T04:59:45;21.70;75.90
13405;DHT22;6773;51.192;7.024;2022-07-29T05:07:02;23.20;73.00
13405;DHT22;6773;51.192;7.024;2022-07-29T05:11:54;23.70;71.20
13405;DHT22;6773;51.192;7.024;2022-07-29T05:14:19;23.60;72.00
13405;DHT22;6773;51.192;7.024;2022-07-29T05:19:11;23.70;70.80
13405;DHT22;6773;51.192;7.024;2022-07-29T05:24:03;22.80;66.40
13405;DHT22;6773;51.192;7.024;2022-07-29T05:28:54;20.30;71.70
13405;DHT22;6773;51.192;7.024;2022-07-29T05:31:22;19.60;74.20
13405;DHT22;6773;51.192;7.024;2022-07-29T05:33:52;19.00;75.80
13405;DHT22;6773;51.192;7.024;2022-07-29T05:36:17;18.70;76.70
13405;DHT22;6773;51.192;7.024;2022-07-29T05:38:43;18.40;78.20
13405;DHT22;6773;51.192;7.024;2022-07-29T05:41:09;18.20;79.00
13405;DHT22;6773;51.192;7.024;2022-07-29T05:43:34;18.20;79.50
13405;DHT22;6773;51.192;7.024;2022-07-29T05:46:00;18.20;79.90
13405;DHT22;6773;51.192;7.024;2022-07-29T05:48:26;18.30;80.40
13405;DHT22;6773;51.192;7.024;2022-07-29T05:50:51;18.30;80.30
13405;DHT22;6773;51.192;7.024;2022-07-29T05:53:17;18.30;80.70
13405;DHT22;6773;51.192;7.024;2022-07-29T05:58:09;18.40;81.20
13405;DHT22;6773;51.192;7.024;2022-07-29T06:03:00;18.40;80.90
13405;DHT22;6773;51.192;7.024;2022-07-29T06:05:26;18.50;81.00
13405;DHT22;6773;51.192;7.024;2022-07-29T06:07:52;18.50;81.00
13405;DHT22;6773;51.192;7.024;2022-07-29T06:10:18;18.40;80.40
13405;DHT22;6773;51.192;7.024;2022-07-29T06:15:10;18.50;80.80
13405;DHT22;6773;51.192;7.024;2022-07-29T06:20:03;18.60;81.70
13405;DHT22;6773;51.192;7.024;2022-07-29T06:22:28;18.80;81.80
13405;DHT22;6773;51.192;7.024;2022-07-29T06:24:54;18.90;82.10
13405;DHT22;6773;51.192;7.024;2022-07-29T06:27:20;19.00;81.10
13405;DHT22;6773;51.192;7.024;2022-07-29T06:29:45;19.10;80.60
13405;DHT22;6773;51.192;7.024;2022-07-29T06:34:37;19.20;79.50
13405;DHT22;6773;51.192;7.024;2022-07-29T06:37:09;19.30;80.30
13405;DHT22;6773;51.192;7.024;2022-07-29T06:39:35;19.30;80.10
13405;DHT22;6773;51.192;7.024;2022-07-29T06:42:02;19.30;79.80
13405;DHT22;6773;51.192;7.024;2022-07-29T06:44:27;19.40;81.00
13405;DHT22;6773;51.192;7.024;2022-07-29T06:46:53;19.50;80.30
13405;DHT22;6773;51.192;7.024;2022-07-29T06:49:20;19.60;79.80
13405;DHT22;6773;51.192;7.024;2022-07-29T06:51:45;19.50;79.90
13405;DHT22;6773;51.192;7.024;2022-07-29T06:54:11;19.50;79.80
13405;DHT22;6773;51.192;7.024;2022-07-29T06:56:37;19.50;80.80
13405;DHT22;6773;51.192;7.024;2022-07-29T06:59:04;19.40;81.70
13405;DHT22;6773;51.192;7.024;2022-07-29T07:01:30;19.40;81.80
13405;DHT22;6773;51.192;7.024;2022-07-29T07:06:22;19.30;81.60
13405;DHT22;6773;51.192;7.024;2022-07-29T07:08:47;19.30;80.60
13405;DHT22;6773;51.192;7.024;2022-07-29T07:13:39;19.10;83.80
13405;DHT22;6773;51.192;7.024;2022-07-29T07:16:05;19.10;84.20
13405;DHT22;6773;51.192;7.024;2022-07-29T07:18:30;19.00;85.20
13405;DHT22;6773;51.192;7.024;2022-07-29T07:20:57;19.10;87.10
13405;DHT22;6773;51.192;7.024;2022-07-29T07:23:22;19.10;87.70
13405;DHT22;6773;51.192;7.024;2022-07-29T07:25:48;19.10;89.20
13405;DHT22;6773;51.192;7.024;2022-07-29T07:28:13;19.10;91.70
13405;DHT22;6773;51.192;7.024;2022-07-29T07:30:39;19.00;92.60
13405;DHT22;6773;51.192;7.024;2022-07-29T07:33:05;19.00;93.10
13405;DHT22;6773;51.192;7.024;2022-07-29T07:35:30;19.00;94.50
13405;DHT22;6773;51.192;7.024;2022-07-29T07:37:57;19.00;96.30
13405;DHT22;6773;51.192;7.024;2022-07-29T07:40:24;19.00;97.10
13405;DHT22;6773;51.192;7.024;2022-07-29T07:47:43;18.90;99.00
13405;DHT22;6773;51.192;7.024;2022-07-29T07:50:10;18.90;99.90
13405;DHT22;6773;51.192;7.024;2022-07-29T07:52:52;18.80;99.80
13405;DHT22;6773;51.192;7.024;2022-07-29T07:55:18;18.80;99.70
13405;DHT22;6773;51.192;7.024;2022-07-29T07:57:45;18.70;99.10
13405;DHT22;6773;51.192;7.024;2022-07-29T08:00:12;18.70;99.30
13405;DHT22;6773;51.192;7.024;2022-07-29T08:02:38;18.70;99.70
13405;DHT22;6773;51.192;7.024;2022-07-29T08:05:05;18.70;99.90
13405;DHT22;6773;51.192;7.024;2022-07-29T08:07:32;18.70;99.90
13405;DHT22;6773;51.192;7.024;2022-07-29T08:09:58;18.60;99.90
13405;DHT22;6773;51.192;7.024;2022-07-29T08:12:23;18.60;99.90
13405;DHT22;6773;51.192;7.024;2022-07-29T08:14:49;18.50;99.90
13405;DHT22;6773;51.192;7.024;2022-07-29T08:17:14;18.50;99.90
13405;DHT22;6773;51.192;7.024;2022-07-29T08:19:40;18.50;99.90
13405;DHT22;6773;51.192;7.024;2022-07-29T08:22:06;18.50;99.90
13405;DHT22;6773;51.192;7.024;2022-07-29T08:24:31;18.60;99.90
13405;DHT22;6773;51.192;7.024;2022-07-29T08:27:13;18.60;99.90
13405;DHT22;6773;51.192;7.024;2022-07-29T08:32:05;18.60;99.90
13405;DHT22;6773;51.192;7.024;2022-07-29T08:34:31;18.70;99.90
13405;DHT22;6773;51.192;7.024;2022-07-29T08:36:57;18.70;99.90
13405;DHT22;6773;51.192;7.024;2022-07-29T08:39:23;18.80;99.90
13405;DHT22;6773;51.192;7.024;2022-07-29T08:41:50;18.90;99.90
13405;DHT22;6773;51.192;7.024;2022-07-29T08:44:19;18.90;99.90
13405;DHT22;6773;51.192;7.024;2022-07-29T08:46:47;18.90;99.90
13405;DHT22;6773;51.192;7.024;2022-07-29T08:49:12;18.90;99.90
13405;DHT22;6773;51.192;7.024;2022-07-29T08:51:41;19.00;99.90
13405;DHT22;6773;51.192;7.024;2022-07-29T08:54:09;18.90;99.90
13405;DHT22;6773;51.192;7.024;2022-07-29T08:56:35;18.90;99.90
13405;DHT22;6773;51.192;7.024;2022-07-29T08:59:05;18.90;99.90
13405;DHT22;6773;51.192;7.024;2022-07-29T09:01:33;18.90;99.90
13405;DHT22;6773;51.192;7.024;2022-07-29T09:03:59;18.90;99.90
13405;DHT22;6773;51.192;7.024;2022-07-29T09:06:30;18.90;99.90
13405;DHT22;6773;51.192;7.024;2022-07-29T09:08:59;18.90;99.90
13405;DHT22;6773;51.192;7.024;2022-07-29T09:11:26;18.90;99.90
13405;DHT22;6773;51.192;7.024;2022-07-29T09:13:52;18.90;99.90
13405;DHT22;6773;51.192;7.024;2022-07-29T09:16:17;18.90;99.90
13405;DHT22;6773;51.192;7.024;2022-07-29T09:18:45;18.90;99.90
13405;DHT22;6773;51.192;7.024;2022-07-29T09:21:16;18.90;99.90
13405;DHT22;6773;51.192;7.024;2022-07-29T09:24:11;18.90;99.90
13405;DHT22;6773;51.192;7.024;2022-07-29T09:26:39;19.00;99.90
13405;DHT22;6773;51.192;7.024;2022-07-29T09:29:10;18.90;99.90
13405;DHT22;6773;51.192;7.024;2022-07-29T09:31:46;18.90;99.90
13405;DHT22;6773;51.192;7.024;2022-07-29T09:34:14;18.90;99.90
13405;DHT22;6773;51.192;7.024;2022-07-29T09:36:45;18.90;99.90
13405;DHT22;6773;51.192;7.024;2022-07-29T09:41:48;18.90;99.90
13405;DHT22;6773;51.192;7.024;2022-07-29T09:44:14;19.00;99.90
13405;DHT22;6773;51.192;7.024;2022-07-29T09:46:59;19.00;99.90
13405;DHT22;6773;51.192;7.024;2022-07-29T09:49:31;19.10;99.90
13405;DHT22;6773;51.192;7.024;2022-07-29T09:52:08;19.20;99.90
13405;DHT22;6773;51.192;7.024;2022-07-29T09:54:34;19.20;99.90
13405;DHT22;6773;51.192;7.024;2022-07-29T09:57:08;19.20;99.90
13405;DHT22;6773;51.192;7.024;2022-07-29T09:59:38;19.30;99.90
13405;DHT22;6773;51.192;7.024;2022-07-29T10:02:14;19.40;99.90
13405;DHT22;6773;51.192;7.024;2022-07-29T10:04:41;19.40;99.90
13405;DHT22;6773;51.192;7.024;2022-07-29T10:07:07;19.50;99.90
13405;DHT22;6773;51.192;7.024;2022-07-29T10:09:33;19.50;99.90
13405;DHT22;6773;51.192;7.024;2022-07-29T10:12:06;19.50;99.90
13405;DHT22;6773;51.192;7.024;2022-07-29T10:14:32;19.50;99.90
13405;DHT22;6773;51.192;7.024;2022-07-29T10:17:03;19.50;99.90
13405;DHT22;6773;51.192;7.024;2022-07-29T10:19:30;19.50;99.90
13405;DHT22;6773;51.192;7.024;2022-07-29T10:22:01;19.50;99.90
13405;DHT22;6773;51.192;7.024;2022-07-29T10:24:27;19.50;99.90
13405;DHT22;6773;51.192;7.024;2022-07-29T10:26:58;19.50;99.90
13405;DHT22;6773;51.192;7.024;2022-07-29T10:29:25;19.50;99.90
13405;DHT22;6773;51.192;7.024;2022-07-29T10:42:21;19.80;99.90
13405;DHT22;6773;51.192;7.024;2022-07-29T10:44:50;19.80;99.90
13405;DHT22;6773;51.192;7.024;2022-07-29T10:47:25;19.90;99.90
13405;DHT22;6773;51.192;7.024;2022-07-29T10:49:58;20.00;99.90
13405;DHT22;6773;51.192;7.024;2022-07-29T10:52:24;20.10;99.90
13405;DHT22;6773;51.192;7.024;2022-07-29T10:54:53;20.10;99.90
13405;DHT22;6773;51.192;7.024;2022-07-29T10:57:26;20.10;99.90
13405;DHT22;6773;51.192;7.024;2022-07-29T11:05:18;20.20;99.90
13405;DHT22;6773;51.192;7.024;2022-07-29T11:15:27;20.70;98.10
13405;DHT22;6773;51.192;7.024;2022-07-29T11:23:25;21.40;97.80
13405;DHT22;6773;51.192;7.024;2022-07-29T11:26:14;22.00;97.60
13405;DHT22;6773;51.192;7.024;2022-07-29T11:29:22;22.40;95.70
13405;DHT22;6773;51.192;7.024;2022-07-29T11:31:50;22.80;94.80
13405;DHT22;6773;51.192;7.024;2022-07-29T11:34:27;23.10;94.10
13405;DHT22;6773;51.192;7.024;2022-07-29T11:39:33;24.10;91.40
13405;DHT22;6773;51.192;7.024;2022-07-29T11:45:00;24.10;90.30
13405;DHT22;6773;51.192;7.024;2022-07-29T11:47:27;24.30;89.70
13405;DHT22;6773;51.192;7.024;2022-07-29T11:49:55;25.30;87.00
13405;DHT22;6773;51.192;7.024;2022-07-29T11:52:21;25.70;81.60
13405;DHT22;6773;51.192;7.024;2022-07-29T11:54:48;25.70;82.20
13405;DHT22;6773;51.192;7.024;2022-07-29T11:57:17;26.00;83.10
13405;DHT22;6773;51.192;7.024;2022-07-29T11:59:44;26.30;80.00
13405;DHT22;6773;51.192;7.024;2022-07-29T12:02:11;26.70;78.00
13405;DHT22;6773;51.192;7.024;2022-07-29T12:04:54;26.60;79.80
13405;DHT22;6773;51.192;7.024;2022-07-29T12:07:33;26.90;80.70
13405;DHT22;6773;51.192;7.024;2022-07-29T12:09:59;27.20;75.80
13405;DHT22;6773;51.192;7.024;2022-07-29T12:12:25;27.10;75.00
13405;DHT22;6773;51.192;7.024;2022-07-29T12:14:51;27.10;76.10
13405;DHT22;6773;51.192;7.024;2022-07-29T12:19:52;27.20;73.10
13405;DHT22;6773;51.192;7.024;2022-07-29T12:22:29;27.40;73.40
13405;DHT22;6773;51.192;7.024;2022-07-29T12:24:55;27.40;72.50
13405;DHT22;6773;51.192;7.024;2022-07-29T12:27:22;27.40;75.30
13405;DHT22;6773;51.192;7.024;2022-07-29T12:30:03;27.70;71.90
13405;DHT22;6773;51.192;7.024;2022-07-29T12:32:39;27.70;71.40
13405;DHT22;6773;51.192;7.024;2022-07-29T12:35:07;27.90;68.20
13405;DHT22;6773;51.192;7.024;2022-07-29T12:37:38;28.30;70.20
13405;DHT22;6773;51.192;7.024;2022-07-29T12:40:05;28.40;72.10
13405;DHT22;6773;51.192;7.024;2022-07-29T12:42:33;28.70;70.90
13405;DHT22;6773;51.192;7.024;2022-07-29T12:45:00;28.70;71.50
13405;DHT22;6773;51.192;7.024;2022-07-29T12:47:25;28.60;68.80
13405;DHT22;6773;51.192;7.024;2022-07-29T12:50:10;28.70;70.90
13405;DHT22;6773;51.192;7.024;2022-07-29T12:52:36;28.30;68.80
13405;DHT22;6773;51.192;7.024;2022-07-29T12:55:03;28.30;70.10
13405;DHT22;6773;51.192;7.024;2022-07-29T12:57:28;28.30;70.80
13405;DHT22;6773;51.192;7.024;2022-07-29T13:00:06;28.10;70.50
13405;DHT22;6773;51.192;7.024;2022-07-29T13:02:37;28.30;71.20
13405;DHT22;6773;51.192;7.024;2022-07-29T13:05:04;28.60;70.90
13405;DHT22;6773;51.192;7.024;2022-07-29T13:07:32;28.60;66.90
13405;DHT22;6773;51.192;7.024;2022-07-29T13:10:16;27.50;67.20
13405;DHT22;6773;51.192;7.024;2022-07-29T13:13:04;27.40;67.10
13405;DHT22;6773;51.192;7.024;2022-07-29T13:15:31;27.00;67.10
13405;DHT22;6773;51.192;7.024;2022-07-29T13:17:56;27.10;66.00
13405;DHT22;6773;51.192;7.024;2022-07-29T13:20:24;27.10;66.10
13405;DHT22;6773;51.192;7.024;2022-07-29T13:22:51;27.70;70.40
13405;DHT22;6773;51.192;7.024;2022-07-29T13:25:28;27.70;71.00
13405;DHT22;6773;51.192;7.024;2022-07-29T13:27:54;28.00;69.40
13405;DHT22;6773;51.192;7.024;2022-07-29T13:30:20;28.40;67.90
13405;DHT22;6773;51.192;7.024;2022-07-29T13:32:47;29.30;66.90
13405;DHT22;6773;51.192;7.024;2022-07-29T13:35:13;29.20;67.40
13405;DHT22;6773;51.192;7.024;2022-07-29T13:37:39;29.40;67.50
13405;DHT22;6773;51.192;7.024;2022-07-29T13:40:06;29.50;66.90
13405;DHT22;6773;51.192;7.024;2022-07-29T13:42:32;29.20;65.50
13405;DHT22;6773;51.192;7.024;2022-07-29T13:44:58;29.20;66.90
13405;DHT22;6773;51.192;7.024;2022-07-29T13:47:24;29.00;65.50
13405;DHT22;6773;51.192;7.024;2022-07-29T13:49:50;29.00;67.30
13405;DHT22;6773;51.192;7.024;2022-07-29T13:52:16;29.50;65.20
13405;DHT22;6773;51.192;7.024;2022-07-29T13:54:42;29.90;66.50
13405;DHT22;6773;51.192;7.024;2022-07-29T13:57:09;29.80;63.30
13405;DHT22;6773;51.192;7.024;2022-07-29T13:59:36;29.70;64.00
13405;DHT22;6773;51.192;7.024;2022-07-29T14:02:02;29.60;64.80
13405;DHT22;6773;51.192;7.024;2022-07-29T14:04:28;29.60;64.90
13405;DHT22;6773;51.192;7.024;2022-07-29T14:06:53;29.10;65.10
13405;DHT22;6773;51.192;7.024;2022-07-29T14:09:19;29.20;64.70
13405;DHT22;6773;51.192;7.024;2022-07-29T14:11:45;29.20;64.10
13405;DHT22;6773;51.192;7.024;2022-07-29T14:14:11;29.50;63.40
13405;DHT22;6773;51.192;7.024;2022-07-29T14:16:37;29.30;63.70
13405;DHT22;6773;51.192;7.024;2022-07-29T14:19:02;29.30;65.00
13405;DHT22;6773;51.192;7.024;2022-07-29T14:21:28;29.20;64.20
13405;DHT22;6773;51.192;7.024;2022-07-29T14:23:54;29.10;64.10
13405;DHT22;6773;51.192;7.024;2022-07-29T14:26:21;28.90;63.10
13405;DHT22;6773;51.192;7.024;2022-07-29T14:28:48;28.80;63.30
13405;DHT22;6773;51.192;7.024;2022-07-29T14:31:14;28.80;65.00
13405;DHT22;6773;51.192;7.024;2022-07-29T14:33:39;28.80;63.80
13405;DHT22;6773;51.192;7.024;2022-07-29T14:36:05;28.90;64.00
13405;DHT22;6773;51.192;7.024;2022-07-29T14:38:31;29.30;61.40
13405;DHT22;6773;51.192;7.024;2022-07-29T14:40:56;29.20;61.90
13405;DHT22;6773;51.192;7.024;2022-07-29T14:43:22;29.20;64.00
13405;DHT22;6773;51.192;7.024;2022-07-29T14:45:47;29.30;64.00
13405;DHT22;6773;51.192;7.024;2022-07-29T14:48:13;29.20;63.30
13405;DHT22;6773;51.192;7.024;2022-07-29T14:50:38;29.40;63.30
13405;DHT22;6773;51.192;7.024;2022-07-29T14:53:04;29.40;63.20
13405;DHT22;6773;51.192;7.024;2022-07-29T14:55:30;29.40;63.90
13405;DHT22;6773;51.192;7.024;2022-07-29T14:57:55;29.50;64.60
13405;DHT22;6773;51.192;7.024;2022-07-29T15:00:21;29.60;64.50
13405;DHT22;6773;51.192;7.024;2022-07-29T15:02:47;29.60;63.30
13405;DHT22;6773;51.192;7.024;2022-07-29T15:05:13;29.60;63.90
13405;DHT22;6773;51.192;7.024;2022-07-29T15:07:39;29.50;63.10
13405;DHT22;6773;51.192;7.024;2022-07-29T15:10:05;29.50;64.10
13405;DHT22;6773;51.192;7.024;2022-07-29T15:12:31;29.50;64.40
13405;DHT22;6773;51.192;7.024;2022-07-29T15:14:57;29.50;64.70
13405;DHT22;6773;51.192;7.024;2022-07-29T15:17:22;29.50;64.70
13405;DHT22;6773;51.192;7.024;2022-07-29T15:19:48;29.50;63.80
13405;DHT22;6773;51.192;7.024;2022-07-29T15:22:14;29.50;63.80
13405;DHT22;6773;51.192;7.024;2022-07-29T15:24:39;29.40;64.50
13405;DHT22;6773;51.192;7.024;2022-07-29T15:27:05;29.50;65.10
13405;DHT22;6773;51.192;7.024;2022-07-29T15:29:31;29.50;65.40
13405;DHT22;6773;51.192;7.024;2022-07-29T15:31:56;29.30;64.40
13405;DHT22;6773;51.192;7.024;2022-07-29T15:34:22;29.20;65.00
13405;DHT22;6773;51.192;7.024;2022-07-29T15:36:50;29.00;65.10
13405;DHT22;6773;51.192;7.024;2022-07-29T15:39:16;29.00;65.80
13405;DHT22;6773;51.192;7.024;2022-07-29T15:41:42;28.90;65.10
13405;DHT22;6773;51.192;7.024;2022-07-29T15:44:07;29.10;65.50
13405;DHT22;6773;51.192;7.024;2022-07-29T15:46:33;29.20;65.40
13405;DHT22;6773;51.192;7.024;2022-07-29T15:49:17;29.10;64.80
13405;DHT22;6773;51.192;7.024;2022-07-29T15:51:43;29.00;65.00
13405;DHT22;6773;51.192;7.024;2022-07-29T15:54:09;29.00;65.60
13405;DHT22;6773;51.192;7.024;2022-07-29T15:56:35;29.10;65.30
13405;DHT22;6773;51.192;7.024;2022-07-29T15:59:01;28.80;65.40
13405;DHT22;6773;51.192;7.024;2022-07-29T16:01:26;28.40;65.70
13405;DHT22;6773;51.192;7.024;2022-07-29T16:03:52;28.00;64.80
13405;DHT22;6773;51.192;7.024;2022-07-29T16:06:18;28.00;65.30
13405;DHT22;6773;51.192;7.024;2022-07-29T16:08:43;27.80;65.90
13405;DHT22;6773;51.192;7.024;2022-07-29T16:11:09;27.90;66.90
13405;DHT22;6773;51.192;7.024;2022-07-29T16:13:35;28.00;66.30
13405;DHT22;6773;51.192;7.024;2022-07-29T16:16:00;28.00;66.30
13405;DHT22;6773;51.192;7.024;2022-07-29T16:18:26;28.10;66.20
13405;DHT22;6773;51.192;7.024;2022-07-29T16:20:51;28.10;66.40
13405;DHT22;6773;51.192;7.024;2022-07-29T16:23:17;28.10;66.30
13405;DHT22;6773;51.192;7.024;2022-07-29T16:25:43;28.30;66.60
13405;DHT22;6773;51.192;7.024;2022-07-29T16:28:09;28.40;66.40
13405;DHT22;6773;51.192;7.024;2022-07-29T16:30:35;28.40;65.70
13405;DHT22;6773;51.192;7.024;2022-07-29T16:33:01;28.20;65.00
13405;DHT22;6773;51.192;7.024;2022-07-29T16:35:27;28.30;65.70
13405;DHT22;6773;51.192;7.024;2022-07-29T16:37:55;28.10;64.80
13405;DHT22;6773;51.192;7.024;2022-07-29T16:40:20;28.00;65.80
13405;DHT22;6773;51.192;7.024;2022-07-29T16:42:46;28.10;64.40
13405;DHT22;6773;51.192;7.024;2022-07-29T16:45:12;28.00;64.40
13405;DHT22;6773;51.192;7.024;2022-07-29T16:47:37;28.00;65.00
13405;DHT22;6773;51.192;7.024;2022-07-29T16:50:03;27.80;62.90
13405;DHT22;6773;51.192;7.024;2022-07-29T16:52:29;27.70;64.90
13405;DHT22;6773;51.192;7.024;2022-07-29T16:54:54;27.70;64.90
13405;DHT22;6773;51.192;7.024;2022-07-29T16:57:20;27.70;65.50
13405;DHT22;6773;51.192;7.024;2022-07-29T16:59:46;27.60;64.10
13405;DHT22;6773;51.192;7.024;2022-07-29T17:02:14;27.60;65.30
13405;DHT22;6773;51.192;7.024;2022-07-29T17:04:39;27.40;64.50
13405;DHT22;6773;51.192;7.024;2022-07-29T17:07:05;27.40;65.20
13405;DHT22;6773;51.192;7.024;2022-07-29T17:09:31;27.40;64.90
13405;DHT22;6773;51.192;7.024;2022-07-29T17:11:56;27.40;64.80
13405;DHT22;6773;51.192;7.024;2022-07-29T17:14:23;27.40;64.70
13405;DHT22;6773;51.192;7.024;2022-07-29T17:16:50;27.30;65.90
13405;DHT22;6773;51.192;7.024;2022-07-29T17:19:16;27.30;66.50
13405;DHT22;6773;51.192;7.024;2022-07-29T17:21:42;27.40;66.60
13405;DHT22;6773;51.192;7.024;2022-07-29T17:24:07;27.40;65.70
13405;DHT22;6773;51.192;7.024;2022-07-29T17:26:33;27.40;64.70
13405;DHT22;6773;51.192;7.024;2022-07-29T17:28:59;27.40;65.20
13405;DHT22;6773;51.192;7.024;2022-07-29T17:31:24;27.30;66.20
13405;DHT22;6773;51.192;7.024;2022-07-29T17:33:50;27.20;64.80
13405;DHT22;6773;51.192;7.024;2022-07-29T17:36:16;27.00;65.50
13405;DHT22;6773;51.192;7.024;2022-07-29T17:39:00;26.90;65.50
13405;DHT22;6773;51.192;7.024;2022-07-29T17:41:26;26.80;66.20
13405;DHT22;6773;51.192;7.024;2022-07-29T17:43:51;26.70;66.10
13405;DHT22;6773;51.192;7.024;2022-07-29T17:46:18;26.60;66.40
13405;DHT22;6773;51.192;7.024;2022-07-29T17:48:44;26.50;66.40
13405;DHT22;6773;51.192;7.024;2022-07-29T17:51:10;26.50;66.90
13405;DHT22;6773;51.192;7.024;2022-07-29T17:53:36;26.50;66.80
13405;DHT22;6773;51.192;7.024;2022-07-29T17:56:03;26.50;65.50
13405;DHT22;6773;51.192;7.024;2022-07-29T17:58:29;26.40;65.40
13405;DHT22;6773;51.192;7.024;2022-07-29T18:00:54;26.50;65.90